sensor_id;sensor_type;location;lat;lon;timestamp;temperature;humidity
43183;DHT22;28802;38.578;-0.066;2022-09-17T00:01:21;23.00;99.90
43183;DHT22;28802;38.578;-0.066;2022-09-17T00:03:49;23.00;99.90
43183;DHT22;28802;38.578;-0.066;2022-09-17T00:06:17;23.00;99.90
43183;DHT22;28802;38.578;-0.066;2022-09-17T00:08:43;23.00;99.90
43183;DHT22;28802;38.578;-0.066;2022-09-17T00:11:15;23.00;99.90
43183;DHT22;28802;38.578;-0.066;2022-09-17T00:13:42;22.90;99.90
43183;DHT22;28802;38.578;-0.066;2022-09-17T00:16:09;22.90;99.90
43183;DHT22;28802;38.578;-0.066;2022-09-17T00:18:35;23.00;99.90
43183;DHT22;28802;38.578;-0.066;2022-09-17T00:21:05;23.00;99.90
43183;DHT22;28802;38.578;-0.066;2022-09-17T00:23:31;23.00;99.90
43183;DHT22;28802;38.578;-0.066;2022-09-17T00:25:56;23.00;99.90
43183;DHT22;28802;38.578;-0.066;2022-09-17T00:28:24;22.90;99.90
43183;DHT22;28802;38.578;-0.066;2022-09-17T00:30:50;22.90;99.90
43183;DHT22;28802;38.578;-0.066;2022-09-17T00:33:17;22.90;99.90
43183;DHT22;28802;38.578;-0.066;2022-09-17T00:35:43;22.90;99.90
43183;DHT22;28802;38.578;-0.066;2022-09-17T00:38:10;22.90;99.90
43183;DHT22;28802;38.578;-0.066;2022-09-17T00:40:36;22.80;99.90
43183;DHT22;28802;38.578;-0.066;2022-09-17T00:43:03;22.70;99.90
43183;DHT22;28802;38.578;-0.066;2022-09-17T00:45:29;22.80;99.90
43183;DHT22;28802;38.578;-0.066;2022-09-17T00:47:57;22.80;99.90
43183;DHT22;28802;38.578;-0.066;2022-09-17T00:50:35;22.70;99.90
43183;DHT22;28802;38.578;-0.066;2022-09-17T00:53:16;22.70;99.90
43183;DHT22;28802;38.578;-0.066;2022-09-17T00:56:20;22.70;99.90
43183;DHT22;28802;38.578;-0.066;2022-09-17T00:58:38;22.70;99.90
43183;DHT22;28802;38.578;-0.066;2022-09-17T01:01:04;22.70;99.90
43183;DHT22;28802;38.578;-0.066;2022-09-17T01:03:31;22.70;99.90
43183;DHT22;28802;38.578;-0.066;2022-09-17T01:06:21;22.80;99.90
43183;DHT22;28802;38.578;-0.066;2022-09-17T01:12:02;22.50;99.90
43183;DHT22;28802;38.578;-0.066;2022-09-17T01:17:28;22.30;99.90
43183;DHT22;28802;38.578;-0.066;2022-09-17T01:22:33;22.30;99.90
43183;DHT22;28802;38.578;-0.066;2022-09-17T01:25:22;22.30;99.90
43183;DHT22;28802;38.578;-0.066;2022-09-17T01:45:43;22.50;99.90
43183;DHT22;28802;38.578;-0.066;2022-09-17T01:48:17;22.50;99.90
43183;DHT22;28802;38.578;-0.066;2022-09-17T01:50:58;22.50;99.90
43183;DHT22;28802;38.578;-0.066;2022-09-17T01:53:42;22.60;99.90
43183;DHT22;28802;38.578;-0.066;2022-09-17T01:56:14;22.50;99.90
43183;DHT22;28802;38.578;-0.066;2022-09-17T01:58:47;22.40;99.90
43183;DHT22;28802;38.578;-0.066;2022-09-17T02:01:16;22.40;99.90
43183;DHT22;28802;38.578;-0.066;2022-09-17T02:03:53;22.30;99.90
43183;DHT22;28802;38.578;-0.066;2022-09-17T02:06:25;22.30;99.90
43183;DHT22;28802;38.578;-0.066;2022-09-17T02:08:59;22.30;99.90
43183;DHT22;28802;38.578;-0.066;2022-09-17T02:11:27;22.40;99.90
43183;DHT22;28802;38.578;-0.066;2022-09-17T02:14:03;22.40;99.90
43183;DHT22;28802;38.578;-0.066;2022-09-17T02:16:36;22.60;99.90
43183;DHT22;28802;38.578;-0.066;2022-09-17T02:19:15;22.70;99.90
43183;DHT22;28802;38.578;-0.066;2022-09-17T02:21:44;22.70;99.90
43183;DHT22;28802;38.578;-0.066;2022-09-17T02:24:24;22.70;99.90
43183;DHT22;28802;38.578;-0.066;2022-09-17T02:29:40;22.70;99.90
43183;DHT22;28802;38.578;-0.066;2022-09-17T02:32:07;22.70;99.90
43183;DHT22;28802;38.578;-0.066;2022-09-17T02:34:33;22.80;99.90
43183;DHT22;28802;38.578;-0.066;2022-09-17T02:36:59;22.90;99.90
43183;DHT22;28802;38.578;-0.066;2022-09-17T02:39:26;22.90;99.90
43183;DHT22;28802;38.578;-0.066;2022-09-17T03:00:22;22.10;99.90
43183;DHT22;28802;38.578;-0.066;2022-09-17T03:02:58;22.00;99.90
43183;DHT22;28802;38.578;-0.066;2022-09-17T03:05:26;22.00;99.90
43183;DHT22;28802;38.578;-0.066;2022-09-17T03:07:58;21.90;99.90
43183;DHT22;28802;38.578;-0.066;2022-09-17T03:10:24;21.90;99.90
43183;DHT22;28802;38.578;-0.066;2022-09-17T03:12:54;21.90;99.90
43183;DHT22;28802;38.578;-0.066;2022-09-17T03:15:20;21.80;99.90
43183;DHT22;28802;38.578;-0.066;2022-09-17T03:17:46;21.70;99.90
43183;DHT22;28802;38.578;-0.066;2022-09-17T03:20:12;21.60;99.90
43183;DHT22;28802;38.578;-0.066;2022-09-17T03:22:41;21.50;99.90
43183;DHT22;28802;38.578;-0.066;2022-09-17T03:25:07;21.40;99.90
43183;DHT22;28802;38.578;-0.066;2022-09-17T03:27:33;21.40;99.90
43183;DHT22;28802;38.578;-0.066;2022-09-17T03:29:59;21.40;99.90
43183;DHT22;28802;38.578;-0.066;2022-09-17T03:32:25;21.40;99.90
43183;DHT22;28802;38.578;-0.066;2022-09-17T03:34:51;21.40;99.90
43183;DHT22;28802;38.578;-0.066;2022-09-17T03:37:19;21.30;99.90
43183;DHT22;28802;38.578;-0.066;2022-09-17T03:39:45;21.30;99.90
43183;DHT22;28802;38.578;-0.066;2022-09-17T03:42:11;21.30;99.90
43183;DHT22;28802;38.578;-0.066;2022-09-17T03:44:37;21.30;99.90
43183;DHT22;28802;38.578;-0.066;2022-09-17T03:47:03;21.20;99.90
43183;DHT22;28802;38.578;-0.066;2022-09-17T03:49:29;21.20;99.90
43183;DHT22;28802;38.578;-0.066;2022-09-17T03:51:55;21.30;99.90
43183;DHT22;28802;38.578;-0.066;2022-09-17T03:54:20;21.30;99.90
43183;DHT22;28802;38.578;-0.066;2022-09-17T03:56:46;21.40;99.90
43183;DHT22;28802;38.578;-0.066;2022-09-17T03:59:12;21.40;99.90
43183;DHT22;28802;38.578;-0.066;2022-09-17T04:01:38;21.50;99.90
43183;DHT22;28802;38.578;-0.066;2022-09-17T04:04:04;21.70;99.90
43183;DHT22;28802;38.578;-0.066;2022-09-17T04:06:30;21.70;99.90
43183;DHT22;28802;38.578;-0.066;2022-09-17T04:08:56;21.80;99.90
43183;DHT22;28802;38.578;-0.066;2022-09-17T04:11:22;21.70;99.90
43183;DHT22;28802;38.578;-0.066;2022-09-17T04:13:48;21.60;99.90
43183;DHT22;28802;38.578;-0.066;2022-09-17T04:16:14;21.60;99.90
43183;DHT22;28802;38.578;-0.066;2022-09-17T04:18:40;21.70;99.90
43183;DHT22;28802;38.578;-0.066;2022-09-17T04:21:06;21.70;99.90
43183;DHT22;28802;38.578;-0.066;2022-09-17T04:23:32;21.70;99.90
43183;DHT22;28802;38.578;-0.066;2022-09-17T04:25:58;21.90;99.90
43183;DHT22;28802;38.578;-0.066;2022-09-17T04:28:23;22.00;99.90
43183;DHT22;28802;38.578;-0.066;2022-09-17T04:30:49;22.00;99.90
43183;DHT22;28802;38.578;-0.066;2022-09-17T04:33:15;22.20;99.90
43183;DHT22;28802;38.578;-0.066;2022-09-17T04:35:41;22.20;99.90
43183;DHT22;28802;38.578;-0.066;2022-09-17T04:38:08;22.20;99.90
43183;DHT22;28802;38.578;-0.066;2022-09-17T04:40:34;22.10;99.90
43183;DHT22;28802;38.578;-0.066;2022-09-17T04:43:00;22.10;99.90
43183;DHT22;28802;38.578;-0.066;2022-09-17T04:45:29;22.20;99.90
43183;DHT22;28802;38.578;-0.066;2022-09-17T04:47:57;22.40;99.90
43183;DHT22;28802;38.578;-0.066;2022-09-17T04:50:23;22.40;99.90
43183;DHT22;28802;38.578;-0.066;2022-09-17T04:52:49;22.30;99.90
43183;DHT22;28802;38.578;-0.066;2022-09-17T04:55:15;22.20;99.90
43183;DHT22;28802;38.578;-0.066;2022-09-17T04:57:52;22.10;99.90
43183;DHT22;28802;38.578;-0.066;2022-09-17T05:00:19;22.10;99.90
43183;DHT22;28802;38.578;-0.066;2022-09-17T05:02:48;22.00;99.90
43183;DHT22;28802;38.578;-0.066;2022-09-17T05:05:16;21.80;99.90
43183;DHT22;28802;38.578;-0.066;2022-09-17T05:07:42;21.80;99.90
43183;DHT22;28802;38.578;-0.066;2022-09-17T05:10:09;21.70;99.90
43183;DHT22;28802;38.578;-0.066;2022-09-17T05:12:35;21.70;99.90
43183;DHT22;28802;38.578;-0.066;2022-09-17T05:15:02;21.80;99.90
43183;DHT22;28802;38.578;-0.066;2022-09-17T05:17:28;21.90;99.90
43183;DHT22;28802;38.578;-0.066;2022-09-17T05:19:53;21.90;99.90
43183;DHT22;28802;38.578;-0.066;2022-09-17T05:22:20;22.00;99.90
43183;DHT22;28802;38.578;-0.066;2022-09-17T05:24:46;22.10;99.90
43183;DHT22;28802;38.578;-0.066;2022-09-17T05:27:12;22.20;99.90
43183;DHT22;28802;38.578;-0.066;2022-09-17T05:29:38;22.40;99.90
43183;DHT22;28802;38.578;-0.066;2022-09-17T05:32:05;22.40;99.90
43183;DHT22;28802;38.578;-0.066;2022-09-17T05:34:31;22.40;99.90
43183;DHT22;28802;38.578;-0.066;2022-09-17T05:36:57;22.50;99.90
43183;DHT22;28802;38.578;-0.066;2022-09-17T05:39:23;22.50;99.90
43183;DHT22;28802;38.578;-0.066;2022-09-17T05:41:54;22.50;99.90
43183;DHT22;28802;38.578;-0.066;2022-09-17T05:44:20;22.50;99.90
43183;DHT22;28802;38.578;-0.066;2022-09-17T05:46:46;22.30;99.90
43183;DHT22;28802;38.578;-0.066;2022-09-17T05:49:13;22.30;99.90
43183;DHT22;28802;38.578;-0.066;2022-09-17T05:51:40;22.20;99.90
43183;DHT22;28802;38.578;-0.066;2022-09-17T05:54:06;22.10;99.90
43183;DHT22;28802;38.578;-0.066;2022-09-17T05:56:33;22.10;99.90
43183;DHT22;28802;38.578;-0.066;2022-09-17T05:58:59;22.00;99.90
43183;DHT22;28802;38.578;-0.066;2022-09-17T06:01:25;22.00;99.90
43183;DHT22;28802;38.578;-0.066;2022-09-17T06:03:51;22.20;99.90
43183;DHT22;28802;38.578;-0.066;2022-09-17T06:06:17;22.20;99.90
43183;DHT22;28802;38.578;-0.066;2022-09-17T06:08:42;22.10;99.90
43183;DHT22;28802;38.578;-0.066;2022-09-17T06:11:08;22.10;99.90
43183;DHT22;28802;38.578;-0.066;2022-09-17T06:13:34;22.00;99.90
43183;DHT22;28802;38.578;-0.066;2022-09-17T06:16:01;21.90;99.90
43183;DHT22;28802;38.578;-0.066;2022-09-17T06:18:29;21.90;99.90
43183;DHT22;28802;38.578;-0.066;2022-09-17T06:20:58;22.00;99.90
43183;DHT22;28802;38.578;-0.066;2022-09-17T06:23:25;22.00;99.90
43183;DHT22;28802;38.578;-0.066;2022-09-17T06:29:05;22.00;99.90
43183;DHT22;28802;38.578;-0.066;2022-09-17T06:31:31;22.10;99.90
43183;DHT22;28802;38.578;-0.066;2022-09-17T06:33:57;22.60;99.90
43183;DHT22;28802;38.578;-0.066;2022-09-17T06:36:23;23.30;99.90
43183;DHT22;28802;38.578;-0.066;2022-09-17T06:38:50;23.90;99.90
43183;DHT22;28802;38.578;-0.066;2022-09-17T06:41:15;24.40;99.90
43183;DHT22;28802;38.578;-0.066;2022-09-17T06:43:42;25.00;99.90
43183;DHT22;28802;38.578;-0.066;2022-09-17T06:46:10;25.70;99.90
43183;DHT22;28802;38.578;-0.066;2022-09-17T06:48:36;26.20;99.90
43183;DHT22;28802;38.578;-0.066;2022-09-17T06:51:05;26.70;99.90
43183;DHT22;28802;38.578;-0.066;2022-09-17T06:53:31;27.40;99.90
43183;DHT22;28802;38.578;-0.066;2022-09-17T06:55:59;28.10;99.90
43183;DHT22;28802;38.578;-0.066;2022-09-17T06:58:25;28.60;99.90
43183;DHT22;28802;38.578;-0.066;2022-09-17T07:00:51;28.60;99.90
43183;DHT22;28802;38.578;-0.066;2022-09-17T07:03:18;28.80;99.90
43183;DHT22;28802;38.578;-0.066;2022-09-17T07:05:48;29.10;99.90
43183;DHT22;28802;38.578;-0.066;2022-09-17T07:08:15;30.10;99.90
43183;DHT22;28802;38.578;-0.066;2022-09-17T07:10:40;30.70;99.90
43183;DHT22;28802;38.578;-0.066;2022-09-17T07:13:06;30.60;99.90
43183;DHT22;28802;38.578;-0.066;2022-09-17T07:15:32;31.10;99.90
43183;DHT22;28802;38.578;-0.066;2022-09-17T07:17:58;31.30;99.90
43183;DHT22;28802;38.578;-0.066;2022-09-17T07:20:24;31.80;99.90
43183;DHT22;28802;38.578;-0.066;2022-09-17T07:22:57;32.30;99.90
43183;DHT22;28802;38.578;-0.066;2022-09-17T07:25:24;33.00;99.90
43183;DHT22;28802;38.578;-0.066;2022-09-17T07:27:51;33.70;99.90
43183;DHT22;28802;38.578;-0.066;2022-09-17T07:30:18;34.20;99.90
43183;DHT22;28802;38.578;-0.066;2022-09-17T07:32:44;33.90;99.90
43183;DHT22;28802;38.578;-0.066;2022-09-17T07:35:10;34.00;99.90
43183;DHT22;28802;38.578;-0.066;2022-09-17T07:37:37;33.30;99.90
43183;DHT22;28802;38.578;-0.066;2022-09-17T07:40:03;33.20;99.90
43183;DHT22;28802;38.578;-0.066;2022-09-17T07:42:32;33.50;99.90
43183;DHT22;28802;38.578;-0.066;2022-09-17T07:44:58;34.00;99.90
43183;DHT22;28802;38.578;-0.066;2022-09-17T07:47:25;34.20;99.90
43183;DHT22;28802;38.578;-0.066;2022-09-17T07:49:51;33.10;99.90
43183;DHT22;28802;38.578;-0.066;2022-09-17T07:52:16;32.30;99.90
43183;DHT22;28802;38.578;-0.066;2022-09-17T07:54:42;32.40;99.90
43183;DHT22;28802;38.578;-0.066;2022-09-17T07:57:08;32.80;99.90
43183;DHT22;28802;38.578;-0.066;2022-09-17T07:59:34;32.80;99.90
43183;DHT22;28802;38.578;-0.066;2022-09-17T08:02:00;32.70;99.90
43183;DHT22;28802;38.578;-0.066;2022-09-17T08:04:26;32.20;99.90
43183;DHT22;28802;38.578;-0.066;2022-09-17T08:06:52;32.10;99.90
43183;DHT22;28802;38.578;-0.066;2022-09-17T08:09:20;31.40;99.90
43183;DHT22;28802;38.578;-0.066;2022-09-17T08:11:50;31.50;99.90
43183;DHT22;28802;38.578;-0.066;2022-09-17T08:14:16;31.40;99.90
43183;DHT22;28802;38.578;-0.066;2022-09-17T08:16:42;32.00;99.90
43183;DHT22;28802;38.578;-0.066;2022-09-17T08:19:10;32.10;99.90
43183;DHT22;28802;38.578;-0.066;2022-09-17T08:21:36;31.30;99.90
43183;DHT22;28802;38.578;-0.066;2022-09-17T08:24:03;31.30;99.90
43183;DHT22;28802;38.578;-0.066;2022-09-17T08:26:30;31.10;99.90
43183;DHT22;28802;38.578;-0.066;2022-09-17T08:28:59;31.10;99.90
43183;DHT22;28802;38.578;-0.066;2022-09-17T08:31:26;30.60;99.90
43183;DHT22;28802;38.578;-0.066;2022-09-17T08:33:54;30.00;99.90
43183;DHT22;28802;38.578;-0.066;2022-09-17T08:36:21;29.70;99.90
43183;DHT22;28802;38.578;-0.066;2022-09-17T08:38:56;29.70;99.90
43183;DHT22;28802;38.578;-0.066;2022-09-17T08:44:43;29.80;99.90
43183;DHT22;28802;38.578;-0.066;2022-09-17T08:47:27;29.80;99.90
43183;DHT22;28802;38.578;-0.066;2022-09-17T08:49:58;29.80;99.90
43183;DHT22;28802;38.578;-0.066;2022-09-17T08:55:33;29.70;99.90
43183;DHT22;28802;38.578;-0.066;2022-09-17T09:01:03;29.90;99.90
43183;DHT22;28802;38.578;-0.066;2022-09-17T09:06:23;29.70;99.90
43183;DHT22;28802;38.578;-0.066;2022-09-17T09:09:04;29.00;99.90
43183;DHT22;28802;38.578;-0.066;2022-09-17T09:11:32;29.00;99.90
43183;DHT22;28802;38.578;-0.066;2022-09-17T09:14:19;29.00;99.90
43183;DHT22;28802;38.578;-0.066;2022-09-17T09:16:46;28.80;99.90
43183;DHT22;28802;38.578;-0.066;2022-09-17T09:24:41;28.50;99.90
43183;DHT22;28802;38.578;-0.066;2022-09-17T09:27:21;28.60;99.90
43183;DHT22;28802;38.578;-0.066;2022-09-17T09:35:02;28.30;99.90
43183;DHT22;28802;38.578;-0.066;2022-09-17T09:37:39;28.40;99.90
43183;DHT22;28802;38.578;-0.066;2022-09-17T09:52:01;28.50;99.90
43183;DHT22;28802;38.578;-0.066;2022-09-17T09:57:15;28.60;99.90
43183;DHT22;28802;38.578;-0.066;2022-09-17T09:59:42;28.50;99.90
43183;DHT22;28802;38.578;-0.066;2022-09-17T10:02:09;28.30;99.90
43183;DHT22;28802;38.578;-0.066;2022-09-17T10:04:36;28.20;99.90
43183;DHT22;28802;38.578;-0.066;2022-09-17T10:07:05;28.30;99.90
43183;DHT22;28802;38.578;-0.066;2022-09-17T10:09:32;28.60;99.90
43183;DHT22;28802;38.578;-0.066;2022-09-17T10:12:09;28.50;99.90
43183;DHT22;28802;38.578;-0.066;2022-09-17T10:14:41;28.50;99.90
43183;DHT22;28802;38.578;-0.066;2022-09-17T10:20:11;28.40;99.90
43183;DHT22;28802;38.578;-0.066;2022-09-17T10:22:45;28.40;99.90
43183;DHT22;28802;38.578;-0.066;2022-09-17T10:27:47;28.30;99.90
43183;DHT22;28802;38.578;-0.066;2022-09-17T10:30:15;28.20;99.90
43183;DHT22;28802;38.578;-0.066;2022-09-17T10:32:42;28.10;99.90
43183;DHT22;28802;38.578;-0.066;2022-09-17T10:37:47;28.00;99.90
43183;DHT22;28802;38.578;-0.066;2022-09-17T10:42:45;28.10;99.90
43183;DHT22;28802;38.578;-0.066;2022-09-17T10:45:30;28.00;99.90
43183;DHT22;28802;38.578;-0.066;2022-09-17T10:47:58;28.00;99.90
43183;DHT22;28802;38.578;-0.066;2022-09-17T10:50:30;27.70;99.90
43183;DHT22;28802;38.578;-0.066;2022-09-17T10:53:01;27.60;99.90
43183;DHT22;28802;38.578;-0.066;2022-09-17T10:55:42;27.70;99.90
43183;DHT22;28802;38.578;-0.066;2022-09-17T10:58:39;27.40;99.90
43183;DHT22;28802;38.578;-0.066;2022-09-17T11:04:24;27.50;99.90
43183;DHT22;28802;38.578;-0.066;2022-09-17T11:26:45;25.90;99.90
43183;DHT22;28802;38.578;-0.066;2022-09-17T11:35:13;25.90;99.90
43183;DHT22;28802;38.578;-0.066;2022-09-17T11:38:02;25.90;99.90
43183;DHT22;28802;38.578;-0.066;2022-09-17T11:40:38;25.90;99.90
43183;DHT22;28802;38.578;-0.066;2022-09-17T11:43:30;25.80;99.90
43183;DHT22;28802;38.578;-0.066;2022-09-17T11:46:17;25.90;99.90
43183;DHT22;28802;38.578;-0.066;2022-09-17T11:48:52;25.90;99.90
43183;DHT22;28802;38.578;-0.066;2022-09-17T11:51:26;25.90;99.90
43183;DHT22;28802;38.578;-0.066;2022-09-17T11:56:46;25.90;99.90
43183;DHT22;28802;38.578;-0.066;2022-09-17T11:59:24;25.90;99.90
43183;DHT22;28802;38.578;-0.066;2022-09-17T12:02:03;26.00;99.90
43183;DHT22;28802;38.578;-0.066;2022-09-17T12:04:40;26.00;99.90
43183;DHT22;28802;38.578;-0.066;2022-09-17T12:12:45;26.10;99.90
43183;DHT22;28802;38.578;-0.066;2022-09-17T12:15:23;26.00;99.90
43183;DHT22;28802;38.578;-0.066;2022-09-17T12:17:55;25.90;99.90
43183;DHT22;28802;38.578;-0.066;2022-09-17T12:20:31;25.80;99.90
43183;DHT22;28802;38.578;-0.066;2022-09-17T12:23:03;25.80;99.90
43183;DHT22;28802;38.578;-0.066;2022-09-17T12:25:42;25.90;99.90
43183;DHT22;28802;38.578;-0.066;2022-09-17T12:28:40;25.90;99.90
43183;DHT22;28802;38.578;-0.066;2022-09-17T12:31:13;25.90;99.90
43183;DHT22;28802;38.578;-0.066;2022-09-17T12:33:46;26.00;99.90
43183;DHT22;28802;38.578;-0.066;2022-09-17T12:36:36;26.10;99.90
43183;DHT22;28802;38.578;-0.066;2022-09-17T12:50:20;26.10;99.90
43183;DHT22;28802;38.578;-0.066;2022-09-17T12:53:07;26.00;99.90
43183;DHT22;28802;38.578;-0.066;2022-09-17T13:04:20;25.90;99.90
43183;DHT22;28802;38.578;-0.066;2022-09-17T13:15:59;25.90;99.90
43183;DHT22;28802;38.578;-0.066;2022-09-17T13:18:50;25.90;99.90
43183;DHT22;28802;38.578;-0.066;2022-09-17T13:24:19;25.80;99.90
43183;DHT22;28802;38.578;-0.066;2022-09-17T13:26:47;25.90;99.90
43183;DHT22;28802;38.578;-0.066;2022-09-17T13:37:33;25.70;99.90
43183;DHT22;28802;38.578;-0.066;2022-09-17T13:40:00;25.80;99.90
43183;DHT22;28802;38.578;-0.066;2022-09-17T13:42:29;25.80;99.90
43183;DHT22;28802;38.578;-0.066;2022-09-17T13:45:04;25.80;99.90
43183;DHT22;28802;38.578;-0.066;2022-09-17T13:47:33;25.80;99.90
43183;DHT22;28802;38.578;-0.066;2022-09-17T13:50:08;25.70;99.90
43183;DHT22;28802;38.578;-0.066;2022-09-17T13:52:48;25.70;99.90
43183;DHT22;28802;38.578;-0.066;2022-09-17T13:55:35;25.80;99.90
43183;DHT22;28802;38.578;-0.066;2022-09-17T13:58:07;25.90;99.90
43183;DHT22;28802;38.578;-0.066;2022-09-17T14:00:54;25.90;99.90
43183;DHT22;28802;38.578;-0.066;2022-09-17T14:20:01;26.20;99.90
43183;DHT22;28802;38.578;-0.066;2022-09-17T14:22:26;26.20;99.90
43183;DHT22;28802;38.578;-0.066;2022-09-17T14:24:54;26.30;99.90
43183;DHT22;28802;38.578;-0.066;2022-09-17T14:27:50;26.30;99.90
43183;DHT22;28802;38.578;-0.066;2022-09-17T14:30:22;26.30;99.90
43183;DHT22;28802;38.578;-0.066;2022-09-17T14:38:15;26.10;99.90
43183;DHT22;28802;38.578;-0.066;2022-09-17T14:40:46;26.20;99.90
43183;DHT22;28802;38.578;-0.066;2022-09-17T14:43:22;26.20;99.90
43183;DHT22;28802;38.578;-0.066;2022-09-17T14:45:52;26.20;99.90
43183;DHT22;28802;38.578;-0.066;2022-09-17T14:48:29;26.20;99.90
43183;DHT22;28802;38.578;-0.066;2022-09-17T14:53:48;26.20;99.90
43183;DHT22;28802;38.578;-0.066;2022-09-17T14:56:33;26.30;99.90
43183;DHT22;28802;38.578;-0.066;2022-09-17T14:59:00;26.30;99.90
43183;DHT22;28802;38.578;-0.066;2022-09-17T15:01:28;26.30;99.90
43183;DHT22;28802;38.578;-0.066;2022-09-17T15:06:39;26.20;99.90
43183;DHT22;28802;38.578;-0.066;2022-09-17T15:09:05;26.20;99.90
43183;DHT22;28802;38.578;-0.066;2022-09-17T15:11:40;26.20;99.90
43183;DHT22;28802;38.578;-0.066;2022-09-17T15:14:15;26.20;99.90
43183;DHT22;28802;38.578;-0.066;2022-09-17T15:16:48;26.30;99.90
43183;DHT22;28802;38.578;-0.066;2022-09-17T15:19:21;26.30;99.90
43183;DHT22;28802;38.578;-0.066;2022-09-17T15:21:51;26.30;99.90
43183;DHT22;28802;38.578;-0.066;2022-09-17T15:30:00;26.40;99.90
43183;DHT22;28802;38.578;-0.066;2022-09-17T15:32:42;26.40;99.90
43183;DHT22;28802;38.578;-0.066;2022-09-17T15:37:43;26.40;99.90
43183;DHT22;28802;38.578;-0.066;2022-09-17T15:40:22;26.40;99.90
43183;DHT22;28802;38.578;-0.066;2022-09-17T15:42:51;26.50;99.90
43183;DHT22;28802;38.578;-0.066;2022-09-17T15:50:27;26.30;99.90
43183;DHT22;28802;38.578;-0.066;2022-09-17T15:55:39;26.30;99.90
43183;DHT22;28802;38.578;-0.066;2022-09-17T15:58:28;26.30;99.90
43183;DHT22;28802;38.578;-0.066;2022-09-17T16:08:55;26.20;99.90
43183;DHT22;28802;38.578;-0.066;2022-09-17T16:11:26;26.20;99.90
43183;DHT22;28802;38.578;-0.066;2022-09-17T16:13:54;26.10;99.90
43183;DHT22;28802;38.578;-0.066;2022-09-17T16:16:31;26.10;99.90
43183;DHT22;28802;38.578;-0.066;2022-09-17T16:18:58;26.10;99.90
43183;DHT22;28802;38.578;-0.066;2022-09-17T16:21:24;26.00;99.90
43183;DHT22;28802;38.578;-0.066;2022-09-17T16:23:50;26.00;99.90
43183;DHT22;28802;38.578;-0.066;2022-09-17T16:26:24;25.90;99.90
43183;DHT22;28802;38.578;-0.066;2022-09-17T16:28:58;26.00;99.90
43183;DHT22;28802;38.578;-0.066;2022-09-17T16:31:27;26.00;99.90
43183;DHT22;28802;38.578;-0.066;2022-09-17T16:33:53;26.00;99.90
43183;DHT22;28802;38.578;-0.066;2022-09-17T17:28:46;25.70;99.90
43183;DHT22;28802;38.578;-0.066;2022-09-17T17:31:13;25.70;99.90
43183;DHT22;28802;38.578;-0.066;2022-09-17T17:33:39;25.70;99.90
43183;DHT22;28802;38.578;-0.066;2022-09-17T17:36:05;25.70;99.90
43183;DHT22;28802;38.578;-0.066;2022-09-17T17:38:31;25.60;99.90
43183;DHT22;28802;38.578;-0.066;2022-09-17T17:41:11;25.60;99.90
43183;DHT22;28802;38.578;-0.066;2022-09-17T17:43:38;25.60;99.90
43183;DHT22;28802;38.578;-0.066;2022-09-17T17:46:06;25.70;99.90
43183;DHT22;28802;38.578;-0.066;2022-09-17T17:48:32;25.60;99.90
43183;DHT22;28802;38.578;-0.066;2022-09-17T17:51:06;25.60;99.90
43183;DHT22;28802;38.578;-0.066;2022-09-17T17:53:32;25.50;99.90
43183;DHT22;28802;38.578;-0.066;2022-09-17T17:56:00;25.60;99.90
43183;DHT22;28802;38.578;-0.066;2022-09-17T17:58:27;25.50;99.90
43183;DHT22;28802;38.578;-0.066;2022-09-17T18:00:53;25.50;99.90
43183;DHT22;28802;38.578;-0.066;2022-09-17T18:03:20;25.50;99.90
43183;DHT22;28802;38.578;-0.066;2022-09-17T18:05:58;25.60;99.90
43183;DHT22;28802;38.578;-0.066;2022-09-17T18:08:25;25.50;99.90
43183;DHT22;28802;38.578;-0.066;2022-09-17T18:10:56;25.50;99.90
43183;DHT22;28802;38.578;-0.066;2022-09-17T18:13:23;25.50;99.90
43183;DHT22;28802;38.578;-0.066;2022-09-17T18:15:52;25.50;99.90
43183;DHT22;28802;38.578;-0.066;2022-09-17T18:18:18;25.50;99.90
43183;DHT22;28802;38.578;-0.066;2022-09-17T18:20:44;25.50;99.90
43183;DHT22;28802;38.578;-0.066;2022-09-17T18:23:10;25.60;99.90
43183;DHT22;28802;38.578;-0.066;2022-09-17T18:25:36;25.50;99.90
43183;DHT22;28802;38.578;-0.066;2022-09-17T18:28:02;25.50;99.90
43183;DHT22;28802;38.578;-0.066;2022-09-17T18:30:28;25.50;99.90
43183;DHT22;28802;38.578;-0.066;2022-09-17T18:32:54;25.50;99.90
43183;DHT22;28802;38.578;-0.066;2022-09-17T18:35:20;25.50;99.90
43183;DHT22;28802;38.578;-0.066;2022-09-17T18:37:47;25.50;99.90
43183;DHT22;28802;38.578;-0.066;2022-09-17T18:40:13;25.50;99.90
43183;DHT22;28802;38.578;-0.066;2022-09-17T18:42:39;25.60;99.90
43183;DHT22;28802;38.578;-0.066;2022-09-17T18:45:05;25.50;99.90
43183;DHT22;28802;38.578;-0.066;2022-09-17T18:47:31;25.50;99.90
43183;DHT22;28802;38.578;-0.066;2022-09-17T18:49:57;25.50;99.90
43183;DHT22;28802;38.578;-0.066;2022-09-17T18:52:23;25.50;99.90
43183;DHT22;28802;38.578;-0.066;2022-09-17T18:54:49;25.50;99.90
43183;DHT22;28802;38.578;-0.066;2022-09-17T18:57:15;25.50;99.90
43183;DHT22;28802;38.578;-0.066;2022-09-17T18:59:41;25.50;99.90
43183;DHT22;28802;38.578;-0.066;2022-09-17T19:02:10;25.50;99.90
43183;DHT22;28802;38.578;-0.066;2022-09-17T19:04:37;25.50;99.90
43183;DHT22;28802;38.578;-0.066;2022-09-17T19:07:02;25.50;99.90
43183;DHT22;28802;38.578;-0.066;2022-09-17T19:09:29;25.40;99.90
43183;DHT22;28802;38.578;-0.066;2022-09-17T19:11:56;25.50;99.90
43183;DHT22;28802;38.578;-0.066;2022-09-17T19:14:22;25.40;99.90
43183;DHT22;28802;38.578;-0.066;2022-09-17T19:16:47;25.50;99.90
43183;DHT22;28802;38.578;-0.066;2022-09-17T19:19:13;25.50;99.90
43183;DHT22;28802;38.578;-0.066;2022-09-17T19:21:39;25.40;99.90
43183;DHT22;28802;38.578;-0.066;2022-09-17T19:24:05;25.50;99.90
43183;DHT22;28802;38.578;-0.066;2022-09-17T19:26:31;25.50;99.90
43183;DHT22;28802;38.578;-0.066;2022-09-17T19:28:58;25.50;99.90
43183;DHT22;28802;38.578;-0.066;2022-09-17T19:31:25;25.40;99.90
43183;DHT22;28802;38.578;-0.066;2022-09-17T19:33:51;25.40;99.90
43183;DHT22;28802;38.578;-0.066;2022-09-17T19:36:18;25.40;99.90
43183;DHT22;28802;38.578;-0.066;2022-09-17T19:38:45;25.40;99.90
43183;DHT22;28802;38.578;-0.066;2022-09-17T19:41:21;25.40;99.90
43183;DHT22;28802;38.578;-0.066;2022-09-17T19:43:50;25.40;99.90
43183;DHT22;28802;38.578;-0.066;2022-09-17T19:46:19;25.40;99.90
43183;DHT22;28802;38.578;-0.066;2022-09-17T19:48:50;25.40;99.90
43183;DHT22;28802;38.578;-0.066;2022-09-17T19:51:17;25.40;99.90
43183;DHT22;28802;38.578;-0.066;2022-09-17T19:53:44;25.40;99.90
43183;DHT22;28802;38.578;-0.066;2022-09-17T19:56:12;25.30;99.90
43183;DHT22;28802;38.578;-0.066;2022-09-17T19:58:38;25.30;99.90
43183;DHT22;28802;38.578;-0.066;2022-09-17T20:01:04;25.40;99.90
43183;DHT22;28802;38.578;-0.066;2022-09-17T20:03:30;25.30;99.90
43183;DHT22;28802;38.578;-0.066;2022-09-17T20:06:01;25.30;99.90
43183;DHT22;28802;38.578;-0.066;2022-09-17T20:08:27;25.30;99.90
43183;DHT22;28802;38.578;-0.066;2022-09-17T20:10:53;25.30;99.90